Time;durP1;ratioP1;P1;durP2;ratioP2;P2;SDS_P1;SDS_P2;PMS_P1;PMS_P2;Temp;Humidity;BMP_temperature;BMP_pressure;BME280_temperature;BME280_humidity;BME280_pressure;Samples;Min_cycle;Max_cycle;Signal;HPM_P1;HPM_P2
2021/07/01 00:00:40;;;;;;;4.23;3.83;;;;;;;13.15;100.00;97719.31;5081284;28;20230;-69
2021/07/01 00:03:08;;;;;;;3.57;3.37;;;;;;;12.97;100.00;97717.88;5080778;28;20326;-70
2021/07/01 00:05:36;;;;;;;4.20;4.00;;;;;;;12.82;100.00;97717.09;5082585;28;20198;-69
2021/07/01 00:08:05;;;;;;;4.43;4.23;;;;;;;12.72;100.00;97714.72;5078306;28;20598;-68
2021/07/01 00:10:35;;;;;;;4.60;4.30;;;;;;;12.63;100.00;97723.78;5080327;28;20753;-69
2021/07/01 00:13:04;;;;;;;4.60;4.30;;;;;;;12.59;100.00;97716.19;5076980;28;20452;-68
2021/07/01 00:15:34;;;;;;;4.70;4.37;;;;;;;12.55;100.00;97714.91;5079184;28;20202;-70
2021/07/01 00:18:03;;;;;;;5.10;4.70;;;;;;;12.53;100.00;97713.44;5079292;28;20206;-69
2021/07/01 00:20:31;;;;;;;5.97;5.07;;;;;;;12.52;100.00;97725.06;5082190;28;20554;-69
2021/07/01 00:22:59;;;;;;;5.10;4.70;;;;;;;12.53;100.00;97710.78;5077213;28;21055;-68
2021/07/01 00:25:27;;;;;;;5.30;4.90;;;;;;;12.49;100.00;97712.16;5081127;28;20563;-68
2021/07/01 00:27:58;;;;;;;5.00;4.57;;;;;;;12.52;100.00;97714.44;5082081;28;20784;-69
2021/07/01 00:30:26;;;;;;;4.97;4.43;;;;;;;12.59;100.00;97710.88;5080875;28;20469;-70
2021/07/01 00:32:54;;;;;;;4.47;4.27;;;;;;;12.55;100.00;97714.91;5082469;28;20213;-69
2021/07/01 00:35:22;;;;;;;4.47;4.27;;;;;;;12.57;100.00;97706.72;5076055;28;20213;-69
2021/07/01 00:37:51;;;;;;;5.00;4.70;;;;;;;12.62;100.00;97714.16;5080821;28;20198;-68
2021/07/01 00:40:19;;;;;;;4.40;4.10;;;;;;;12.64;100.00;97720.13;5079448;28;20218;-69
2021/07/01 00:42:47;;;;;;;5.27;4.87;;;;;;;12.67;100.00;97714.44;5077570;28;20214;-69
2021/07/01 00:45:16;;;;;;;5.37;4.80;;;;;;;12.66;100.00;97721.56;5079053;28;20226;-70
2021/07/01 00:47:44;;;;;;;5.53;5.10;;;;;;;12.65;100.00;97719.13;5079391;28;20210;-70
2021/07/01 00:50:14;;;;;;;5.73;5.20;;;;;;;12.67;100.00;97723.22;5081663;28;20279;-69
2021/07/01 00:52:42;;;;;;;5.53;5.23;;;;;;;12.76;100.00;97715.97;5078735;28;20205;-71
2021/07/01 00:55:12;;;;;;;4.40;4.20;;;;;;;12.75;100.00;97714.34;5081267;28;20194;-69
2021/07/01 00:57:40;;;;;;;5.03;4.63;;;;;;;12.73;100.00;97721.66;5080187;28;20622;-69
2021/07/01 01:00:21;;;;;;;4.67;4.40;;;;;;;12.79;100.00;97725.44;5081534;28;20222;-69
2021/07/01 01:02:50;;;;;;;4.90;4.60;;;;;;;12.78;100.00;97721.13;5077089;28;20637;-68
2021/07/01 01:05:19;;;;;;;4.47;4.17;;;;;;;12.73;100.00;97725.16;5081911;28;20686;-69
2021/07/01 01:07:47;;;;;;;5.00;4.57;;;;;;;12.80;100.00;97727.91;5082485;28;20202;-71
2021/07/01 01:10:15;;;;;;;5.03;4.70;;;;;;;12.79;100.00;97725.44;5086517;28;20245;-69
2021/07/01 01:12:43;;;;;;;5.23;4.93;;;;;;;12.76;100.00;97723.97;5084339;28;20582;-69
2021/07/01 01:15:12;;;;;;;4.77;4.47;;;;;;;12.77;100.00;97724.81;5083437;28;20304;-71
2021/07/01 01:17:42;;;;;;;4.83;4.53;;;;;;;12.77;100.00;97719.47;5083746;28;20213;-69
2021/07/01 01:20:14;;;;;;;4.77;4.47;;;;;;;12.76;100.00;97721.31;5087823;28;20313;-69
2021/07/01 01:22:43;;;;;;;5.53;5.17;;;;;;;12.79;100.00;97720.94;5088041;28;20296;-71
2021/07/01 01:25:12;;;;;;;5.83;5.20;;;;;;;12.81;100.00;97726.88;5087787;28;20265;-70
2021/07/01 01:27:40;;;;;;;5.90;5.53;;;;;;;12.75;100.00;97730.28;5084877;28;20232;-69
2021/07/01 01:30:10;;;;;;;5.20;4.80;;;;;;;12.66;100.00;97732.22;5089341;28;20781;-70
2021/07/01 01:32:39;;;;;;;5.67;5.27;;;;;;;12.71;100.00;97729.00;5088273;28;20221;-72
2021/07/01 01:35:08;;;;;;;5.57;5.17;;;;;;;12.70;100.00;97727.34;5085750;28;20465;-71
2021/07/01 01:37:36;;;;;;;5.30;4.90;;;;;;;12.65;100.00;97730.56;5088019;28;20737;-69
2021/07/01 01:40:07;;;;;;;5.63;5.23;;;;;;;12.64;100.00;97728.91;5087783;28;20321;-70
2021/07/01 01:42:36;;;;;;;5.37;5.07;;;;;;;12.61;100.00;97723.97;5087332;28;20593;-69
2021/07/01 01:45:04;;;;;;;5.70;5.30;;;;;;;12.61;100.00;97726.63;5088644;28;20419;-70
2021/07/01 01:47:32;;;;;;;4.70;4.30;;;;;;;12.65;100.00;97727.91;5087283;28;20883;-70
2021/07/01 01:50:01;;;;;;;5.13;4.73;;;;;;;12.63;100.00;97732.56;5087775;28;20268;-69
2021/07/01 01:52:50;;;;;;;4.70;4.40;;;;;;;12.63;100.00;97726.44;5044845;28;20211;-70
2021/07/01 01:55:19;;;;;;;4.47;4.07;;;;;;;12.62;100.00;97727.47;5046810;28;20207;-69
2021/07/01 01:57:49;;;;;;;4.90;4.37;;;;;;;12.63;100.00;97731.78;5044196;28;20204;-69
2021/07/01 02:00:19;;;;;;;4.57;4.27;;;;;;;12.58;100.00;97724.34;5044771;28;20223;-69
2021/07/01 02:02:47;;;;;;;4.33;4.13;;;;;;;12.56;100.00;97727.19;5044718;28;20616;-70
2021/07/01 02:05:16;;;;;;;4.70;4.23;;;;;;;12.60;100.00;97730.28;5042798;28;20684;-69
2021/07/01 02:07:44;;;;;;;4.00;3.80;;;;;;;12.59;100.00;97733.97;5044876;28;20208;-69
2021/07/01 02:10:14;;;;;;;3.60;3.43;;;;;;;12.59;100.00;97726.81;5051271;28;20228;-69
2021/07/01 02:12:43;;;;;;;3.53;3.33;;;;;;;12.64;100.00;97736.06;5095171;28;20206;-70
2021/07/01 02:15:14;;;;;;;4.03;3.73;;;;;;;12.54;100.00;97731.88;5092800;28;20213;-70
2021/07/01 02:17:42;;;;;;;3.40;3.30;;;;;;;12.48;100.00;97737.06;5087091;28;20217;-69
2021/07/01 02:20:12;;;;;;;3.20;3.10;;;;;;;12.53;100.00;97732.88;5082725;28;20226;-70
2021/07/01 02:22:41;;;;;;;3.27;3.17;;;;;;;12.49;100.00;97723.59;5083170;28;20214;-70
2021/07/01 02:25:10;;;;;;;3.40;3.20;;;;;;;12.58;100.00;97727.84;5084907;28;20233;-71
2021/07/01 02:27:39;;;;;;;4.63;2.60;;;;;;;12.55;100.00;97730.84;5084848;28;20214;-69
2021/07/01 02:30:11;;;;;;;3.93;2.90;;;;;;;12.53;100.00;97729.38;5084219;28;20236;-69
2021/07/01 02:32:39;;;;;;;4.57;4.17;;;;;;;12.50;100.00;97727.09;5076732;28;20206;-71
2021/07/01 02:35:28;;;;;;;3.07;2.97;;;;;;;12.56;100.00;97727.19;5079955;28;20609;-71
2021/07/01 02:37:56;;;;;;;2.90;2.80;;;;;;;12.49;100.00;97728.09;5077430;28;20297;-69
2021/07/01 02:40:24;;;;;;;2.77;2.67;;;;;;;12.46;100.00;97729.28;5083887;28;20226;-69
2021/07/01 02:42:52;;;;;;;2.50;2.40;;;;;;;12.43;100.00;97733.13;5081899;28;20662;-70
2021/07/01 02:45:22;;;;;;;3.23;3.13;;;;;;;12.30;100.00;97739.06;5084448;28;20785;-69
2021/07/01 02:47:50;;;;;;;2.87;2.60;;;;;;;12.21;100.00;97737.50;5083155;28;20396;-68
2021/07/01 02:50:18;;;;;;;2.70;2.60;;;;;;;12.16;100.00;97739.88;5078552;28;20225;-70
2021/07/01 02:52:46;;;;;;;2.87;2.77;;;;;;;12.10;100.00;97738.78;5079523;28;20210;-69
2021/07/01 02:55:14;;;;;;;2.73;2.63;;;;;;;11.97;100.00;97742.00;5080933;28;20213;-67
2021/07/01 02:57:42;;;;;;;3.10;3.00;;;;;;;11.90;100.00;97733.09;5084145;28;20210;-70
2021/07/01 03:00:13;;;;;;;3.03;2.93;;;;;;;11.95;100.00;97740.53;5081782;28;20227;-70
2021/07/01 03:02:43;;;;;;;4.00;3.30;;;;;;;11.80;100.00;97735.19;5084086;28;20209;-70
2021/07/01 03:05:11;;;;;;;3.00;2.80;;;;;;;11.84;100.00;97741.78;5080333;28;20234;-71
2021/07/01 03:07:39;;;;;;;2.97;2.83;;;;;;;11.88;100.00;97741.22;5083316;28;20209;-69
2021/07/01 03:10:08;;;;;;;3.10;2.90;;;;;;;11.85;100.00;97743.44;5080278;28;20222;-71
2021/07/01 03:12:36;;;;;;;3.57;2.70;;;;;;;11.79;100.00;97742.31;5081112;28;20266;-70
2021/07/01 03:15:06;;;;;;;3.40;3.20;;;;;;;11.79;100.00;97749.47;5083015;28;20199;-69
2021/07/01 03:17:34;;;;;;;3.33;3.13;;;;;;;11.75;100.00;97741.03;5081197;28;20194;-69
2021/07/01 03:20:05;;;;;;;3.33;2.90;;;;;;;11.73;100.00;97751.81;5081850;28;20218;-68
2021/07/01 03:22:33;;;;;;;2.70;2.60;;;;;;;11.74;100.00;97744.69;5082665;28;20228;-69
2021/07/01 03:25:01;;;;;;;3.30;2.70;;;;;;;11.67;100.00;97751.69;5083946;28;20480;-68
2021/07/01 03:27:29;;;;;;;2.50;2.33;;;;;;;11.66;100.00;97752.72;5080602;28;20414;-69
2021/07/01 03:29:58;;;;;;;2.67;2.50;;;;;;;11.65;100.00;97751.88;5083282;28;20768;-68
2021/07/01 03:32:26;;;;;;;2.60;2.40;;;;;;;11.63;100.00;97753.06;5080034;28;20210;-68
2021/07/01 03:34:54;;;;;;;2.00;1.90;;;;;;;11.64;100.00;97752.88;5081030;28;20225;-68
2021/07/01 03:37:24;;;;;;;2.00;1.90;;;;;;;11.65;100.00;97756.38;5081929;28;20210;-69
2021/07/01 03:39:52;;;;;;;2.07;1.97;;;;;;;11.63;100.00;97750.41;5078837;28;20424;-69
2021/07/01 03:42:21;;;;;;;1.80;1.70;;;;;;;11.60;100.00;97756.06;5079062;28;20203;-68
2021/07/01 03:44:49;;;;;;;2.00;1.90;;;;;;;11.66;100.00;97763.31;5082242;28;20206;-68
2021/07/01 03:47:17;;;;;;;1.57;1.47;;;;;;;11.70;100.00;97761.97;5079758;28;20205;-68
2021/07/01 03:49:45;;;;;;;2.77;1.80;;;;;;;11.71;100.00;97753.00;5079848;28;20245;-68
2021/07/01 03:52:13;;;;;;;1.70;1.60;;;;;;;11.65;100.00;97767.78;5080416;28;20214;-69
2021/07/01 03:54:43;;;;;;;1.33;1.20;;;;;;;11.65;100.00;97759.03;5084121;28;20210;-69
2021/07/01 03:57:11;;;;;;;1.43;1.43;;;;;;;11.70;100.00;97756.66;5081062;28;20206;-68
2021/07/01 03:59:39;;;;;;;1.50;1.50;;;;;;;11.75;100.00;97764.09;5077975;28;20328;-69
2021/07/01 04:02:07;;;;;;;1.47;1.37;;;;;;;11.75;100.00;97764.09;5081824;28;20323;-68
2021/07/01 04:04:35;;;;;;;1.70;1.60;;;;;;;11.71;100.00;97774.22;5083134;28;20198;-69
2021/07/01 04:07:05;;;;;;;1.10;1.10;;;;;;;11.71;100.00;97776.88;5082285;28;20300;-69
2021/07/01 04:09:33;;;;;;;1.20;1.20;;;;;;;11.78;100.00;97771.72;5078492;28;20233;-76
2021/07/01 04:12:03;;;;;;;1.40;1.30;;;;;;;11.84;100.00;97768.34;5082830;28;20305;-67
2021/07/01 04:14:31;;;;;;;2.10;1.20;;;;;;;11.81;100.00;97774.81;5081911;28;20587;-68
2021/07/01 04:16:59;;;;;;;0.93;0.83;;;;;;;11.84;100.00;97777.13;5078920;28;20567;-70
2021/07/01 04:19:27;;;;;;;0.90;0.90;;;;;;;11.79;100.00;97770.69;5080172;28;20237;-67
2021/07/01 04:21:55;;;;;;;1.10;1.10;;;;;;;11.83;100.00;97772.81;5080259;28;20602;-68
2021/07/01 04:24:23;;;;;;;1.20;1.20;;;;;;;11.84;100.00;97778.97;5083385;28;20202;-68
2021/07/01 04:26:51;;;;;;;1.13;1.13;;;;;;;11.79;100.00;97776.81;5079688;28;20263;-66
2021/07/01 04:29:21;;;;;;;1.60;0.90;;;;;;;11.78;100.00;97782.31;5080613;28;20240;-67
2021/07/01 04:31:49;;;;;;;1.73;1.10;;;;;;;11.73;100.00;97785.50;5082142;28;20224;-68
2021/07/01 04:34:17;;;;;;;0.97;0.97;;;;;;;11.79;100.00;97779.47;5082387;28;20230;-70
2021/07/01 04:36:45;;;;;;;1.20;1.20;;;;;;;11.78;100.00;97783.13;5080599;28;20210;-68
2021/07/01 04:39:13;;;;;;;0.97;0.97;;;;;;;11.73;100.00;97788.97;5082709;28;20226;-68
2021/07/01 04:41:41;;;;;;;1.23;0.80;;;;;;;11.76;100.00;97781.69;5082772;28;20217;-72
2021/07/01 04:44:09;;;;;;;1.13;1.10;;;;;;;11.80;100.00;97783.78;5080396;28;20655;-75
2021/07/01 04:46:38;;;;;;;1.30;1.20;;;;;;;11.76;100.00;97787.78;5082318;28;20626;-72
2021/07/01 04:49:07;;;;;;;2.50;1.10;;;;;;;11.67;100.00;97791.53;5077146;28;20814;-70
2021/07/01 04:51:35;;;;;;;0.70;0.70;;;;;;;11.63;100.00;97791.03;5081620;28;20198;-72
2021/07/01 04:54:03;;;;;;;0.90;0.90;;;;;;;11.60;100.00;97791.38;5080910;28;20198;-67
2021/07/01 04:56:44;;;;;;;1.20;1.20;;;;;;;11.58;100.00;97788.09;5079323;28;20372;-70
2021/07/01 04:59:12;;;;;;;0.93;0.93;;;;;;;11.62;100.00;97791.22;5081349;28;20217;-68
2021/07/01 05:01:42;;;;;;;1.00;0.90;;;;;;;11.60;100.00;97791.38;5079405;28;20210;-69
2021/07/01 05:04:13;;;;;;;2.00;1.00;;;;;;;11.66;100.00;97798.63;5078515;28;20198;-69
2021/07/01 05:06:42;;;;;;;3.03;1.00;;;;;;;11.65;100.00;97793.53;5081113;28;20250;-68
2021/07/01 05:09:11;;;;;;;1.27;1.20;;;;;;;11.66;100.00;97800.47;5078483;28;20222;-72
2021/07/01 05:11:39;;;;;;;1.00;1.00;;;;;;;11.62;100.00;97801.84;5075262;28;20199;-70
2021/07/01 05:14:07;;;;;;;1.00;1.00;;;;;;;11.62;100.00;97805.31;5077756;28;20206;-69
2021/07/01 05:16:35;;;;;;;1.20;1.20;;;;;;;11.61;100.00;97800.19;5083506;28;20984;-67
2021/07/01 05:19:04;;;;;;;1.20;1.20;;;;;;;11.62;100.00;97799.19;5080082;28;20222;-72
2021/07/01 05:21:32;;;;;;;1.67;1.60;;;;;;;11.64;100.00;97803.31;5080141;28;20210;-68
2021/07/01 05:24:01;;;;;;;1.10;1.10;;;;;;;11.58;100.00;97798.69;5081169;28;20213;-68
2021/07/01 05:26:29;;;;;;;1.17;1.17;;;;;;;11.61;100.00;97795.69;5081677;28;20222;-68
2021/07/01 05:28:57;;;;;;;1.30;1.30;;;;;;;11.68;100.00;97795.81;5082396;28;20226;-68
2021/07/01 05:31:45;;;;;;;1.73;1.63;;;;;;;11.73;100.00;97801.44;5080423;28;20205;-69
2021/07/01 05:34:15;;;;;;;1.30;1.20;;;;;;;11.82;100.00;97802.22;5080547;28;20202;-68
2021/07/01 05:36:43;;;;;;;1.40;1.30;;;;;;;11.82;100.00;97800.34;5081688;28;20210;-72
2021/07/01 05:39:10;;;;;;;1.10;1.10;;;;;;;11.95;100.00;97798.97;5083450;28;20222;-72
2021/07/01 05:41:39;;;;;;;1.70;1.60;;;;;;;12.02;100.00;97797.28;5088676;28;20206;-72
2021/07/01 05:44:07;;;;;;;1.33;1.33;;;;;;;11.98;100.00;97802.06;5088563;28;20206;-70
2021/07/01 05:46:35;;;;;;;3.90;1.40;;;;;;;11.95;100.00;97805.09;5081468;28;20217;-70
2021/07/01 05:49:03;;;;;;;1.47;1.40;;;;;;;11.95;100.00;97804.28;5077885;28;20312;-68
2021/07/01 05:51:35;;;;;;;1.77;1.67;;;;;;;11.98;100.00;97802.06;5081195;28;20202;-69
2021/07/01 05:54:09;;;;;;;1.57;1.57;;;;;;;12.09;100.00;97815.97;5081930;28;20221;-67
2021/07/01 05:56:42;;;;;;;1.50;1.50;;;;;;;12.08;100.00;97822.28;5084041;28;20259;-71
2021/07/01 05:59:11;;;;;;;1.77;1.77;;;;;;;12.13;100.00;97814.63;5084932;28;20237;-70
2021/07/01 06:01:39;;;;;;;1.73;1.67;;;;;;;12.11;100.00;97816.59;5083946;28;20212;-70
2021/07/01 06:04:08;;;;;;;1.67;1.57;;;;;;;12.04;100.00;97818.31;5084874;28;20556;-68
2021/07/01 06:06:38;;;;;;;2.00;1.80;;;;;;;12.01;100.00;97827.50;5085273;28;20241;-69
2021/07/01 06:09:07;;;;;;;1.90;1.80;;;;;;;12.03;100.00;97825.47;5083704;28;20229;-68
2021/07/01 06:11:36;;;;;;;1.90;1.80;;;;;;;12.00;100.00;97824.00;5085184;28;20666;-71
2021/07/01 06:14:06;;;;;;;2.10;1.97;;;;;;;12.03;100.00;97814.88;5085092;28;20232;-72
2021/07/01 06:16:35;;;;;;;1.87;1.80;;;;;;;11.99;100.00;97821.50;5085203;28;20202;-71
2021/07/01 06:19:04;;;;;;;2.17;2.10;;;;;;;12.03;100.00;97828.16;5084585;28;20229;-69
2021/07/01 06:21:33;;;;;;;2.03;1.93;;;;;;;12.03;100.00;97830.81;5082661;28;20213;-70
2021/07/01 06:24:02;;;;;;;1.67;1.67;;;;;;;12.02;100.00;97824.66;5085882;28;20206;-68
2021/07/01 06:26:32;;;;;;;2.17;1.80;;;;;;;12.11;100.00;97824.56;5085067;28;20229;-68
2021/07/01 06:29:00;;;;;;;1.93;1.93;;;;;;;12.16;100.00;97836.34;5082070;28;20223;-69
2021/07/01 06:31:28;;;;;;;2.13;2.03;;;;;;;12.11;100.00;97840.50;5084427;28;20499;-67
2021/07/01 06:33:56;;;;;;;2.60;2.50;;;;;;;12.07;100.00;97833.91;5087467;28;20210;-68
2021/07/01 06:36:25;;;;;;;2.37;2.20;;;;;;;12.07;100.00;97832.09;5084025;28;20222;-68
2021/07/01 06:38:57;;;;;;;2.80;2.60;;;;;;;12.17;100.00;97839.81;5081082;28;20222;-70
2021/07/01 06:41:28;;;;;;;2.50;2.40;;;;;;;12.16;100.00;97839.00;5082802;28;20194;-70
2021/07/01 06:43:57;;;;;;;3.17;2.83;;;;;;;12.30;100.00;97848.00;5084022;28;20217;-68
2021/07/01 06:46:30;;;;;;;2.60;2.50;;;;;;;12.32;100.00;97847.00;5083870;28;20214;-67
2021/07/01 06:48:58;;;;;;;3.00;2.87;;;;;;;12.48;100.00;97849.50;5082001;28;20638;-69
2021/07/01 06:51:27;;;;;;;3.03;2.83;;;;;;;12.36;100.00;97850.97;5083963;28;20233;-72
2021/07/01 06:53:55;;;;;;;3.00;2.83;;;;;;;12.41;100.00;97852.09;5085612;28;20210;-70
2021/07/01 06:56:23;;;;;;;3.33;3.20;;;;;;;12.38;100.00;97857.75;5083483;28;20202;-69
2021/07/01 06:58:52;;;;;;;3.70;3.50;;;;;;;12.48;100.00;97865.47;5082752;28;20206;-71
2021/07/01 07:01:20;;;;;;;4.17;3.77;;;;;;;12.43;100.00;97863.34;5081766;28;20205;-67
2021/07/01 07:04:10;;;;;;;4.40;4.10;;;;;;;12.48;100.00;97862.81;5082822;28;20207;-67
2021/07/01 07:06:40;;;;;;;4.80;4.47;;;;;;;12.56;100.00;97865.41;5081904;28;20199;-71
2021/07/01 07:09:08;;;;;;;5.40;4.97;;;;;;;12.58;100.00;97874.03;5085241;28;20245;-68
2021/07/01 07:11:36;;;;;;;6.00;5.50;;;;;;;12.62;100.00;97881.66;5083587;28;20213;-71
2021/07/01 07:14:06;;;;;;;5.60;5.20;;;;;;;12.57;100.00;97882.16;5084715;28;20198;-68
2021/07/01 07:16:35;;;;;;;6.50;5.90;;;;;;;12.63;100.00;97876.13;5083376;28;20213;-71
2021/07/01 07:19:04;;;;;;;6.70;6.20;;;;;;;12.62;100.00;97876.31;5083079;28;20622;-68
2021/07/01 07:21:35;;;;;;;6.57;6.07;;;;;;;12.64;100.00;97876.97;5083303;28;20211;-69
2021/07/01 07:24:04;;;;;;;5.40;5.10;;;;;;;12.53;100.00;97883.53;5083597;28;20202;-70
2021/07/01 07:26:33;;;;;;;7.10;6.60;;;;;;;12.51;100.00;97886.38;5082984;28;20575;-70
2021/07/01 07:29:18;;;;;;;17.63;7.73;;;;;;;12.53;100.00;97887.03;5082492;28;20283;-69
2021/07/01 07:31:46;;;;;;;7.60;6.90;;;;;;;12.64;100.00;97882.28;5085178;28;20217;-72
2021/07/01 07:34:14;;;;;;;8.53;7.77;;;;;;;12.69;100.00;97878.09;5083641;28;20210;-71
2021/07/01 07:36:42;;;;;;;8.70;7.77;;;;;;;12.80;100.00;97881.31;5083237;28;20213;-70
2021/07/01 07:39:10;;;;;;;8.83;8.13;;;;;;;12.90;100.00;97883.72;5082767;28;20226;-70
2021/07/01 07:41:38;;;;;;;9.47;8.67;;;;;;;12.76;100.00;97877.38;5081174;28;20202;-70
2021/07/01 07:44:07;;;;;;;9.73;8.27;;;;;;;12.90;100.00;97881.06;5084285;28;20198;-70
2021/07/01 07:46:36;;;;;;;9.17;8.47;;;;;;;13.11;100.00;97872.34;5080488;28;20214;-72
2021/07/01 07:49:04;;;;;;;9.13;8.40;;;;;;;13.14;100.00;97872.81;5081859;28;20477;-72
2021/07/01 07:51:33;;;;;;;9.90;8.93;;;;;;;13.49;100.00;97877.59;5081455;28;20244;-73
2021/07/01 07:54:04;;;;;;;10.00;9.00;;;;;;;13.41;100.00;97877.66;5087335;28;20198;-71
2021/07/01 07:56:39;;;;;;;9.77;9.00;;;;;;;13.78;100.00;97878.53;5082673;28;20209;-69
2021/07/01 07:59:10;;;;;;;8.50;7.90;;;;;;;13.80;100.00;97876.50;5083014;28;20214;-70
2021/07/01 08:01:40;;;;;;;7.90;7.30;;;;;;;13.67;100.00;97877.19;5083549;28;20659;-69
2021/07/01 08:04:08;;;;;;;7.80;7.20;;;;;;;13.89;100.00;97886.06;5085719;28;20202;-70
2021/07/01 08:06:38;;;;;;;6.43;5.93;;;;;;;13.72;100.00;97881.94;5082489;28;20654;-71
2021/07/01 08:09:06;;;;;;;6.77;6.30;;;;;;;13.86;100.00;97877.59;5083510;28;20586;-72
2021/07/01 08:11:35;;;;;;;6.33;5.80;;;;;;;13.82;100.00;97882.47;5081960;28;20203;-71
2021/07/01 08:14:03;;;;;;;6.00;5.50;;;;;;;13.77;100.00;97873.41;5082734;28;20205;-70
2021/07/01 08:16:32;;;;;;;6.37;5.77;;;;;;;13.68;100.00;97878.00;5081974;28;20634;-69
2021/07/01 08:19:01;;;;;;;5.87;5.27;;;;;;;13.57;100.00;97888.13;5081096;28;20226;-69
2021/07/01 08:21:29;;;;;;;4.87;4.47;;;;;;;13.73;100.00;97883.59;5081842;28;20737;-71
2021/07/01 08:23:58;;;;;;;4.00;3.70;;;;;;;13.62;100.00;97886.75;5082240;28;20304;-71
2021/07/01 08:26:26;;;;;;;4.00;3.80;;;;;;;13.82;100.00;97893.13;5080893;28;20244;-71
2021/07/01 08:28:55;;;;;;;3.60;3.40;;;;;;;13.98;100.00;97888.59;5081776;28;20230;-73
2021/07/01 08:31:23;;;;;;;4.50;4.10;;;;;;;13.93;100.00;97891.00;5079527;28;20194;-69
2021/07/01 08:33:53;;;;;;;3.90;3.70;;;;;;;14.09;100.00;97882.75;5080148;28;20210;-71
2021/07/01 08:36:24;;;;;;;3.50;3.30;;;;;;;14.33;100.00;97883.41;5079988;28;20202;-67
2021/07/01 08:38:53;;;;;;;3.60;3.40;;;;;;;14.59;100.00;97884.69;5079021;28;20198;-71
2021/07/01 08:41:23;;;;;;;3.27;3.07;;;;;;;15.07;100.00;97884.00;5079682;28;20570;-73
2021/07/01 08:43:53;;;;;;;2.80;2.60;;;;;;;15.45;100.00;97882.78;5080417;28;20198;-69
2021/07/01 08:46:26;;;;;;;3.10;2.80;;;;;;;15.46;100.00;97884.44;5081078;28;20590;-69
2021/07/01 08:49:04;;;;;;;2.50;2.40;;;;;;;15.24;100.00;97892.53;5081042;28;20222;-73
2021/07/01 08:51:37;;;;;;;3.10;2.80;;;;;;;15.15;100.00;97896.38;5079999;28;20222;-70
2021/07/01 08:54:16;;;;;;;2.73;2.63;;;;;;;14.79;100.00;97898.19;5083147;28;20202;-71
2021/07/01 08:56:44;;;;;;;2.80;2.70;;;;;;;14.70;100.00;97921.50;5081161;28;20300;-72
2021/07/01 08:59:13;;;;;;;2.47;2.37;;;;;;;14.57;100.00;97913.34;5081874;28;20698;-73
2021/07/01 09:01:42;;;;;;;3.50;2.87;;;;;;;14.38;100.00;97912.16;5082636;28;20213;-70
2021/07/01 09:04:12;;;;;;;3.20;3.00;;;;;;;14.46;100.00;97907.53;5082262;28;20293;-69
2021/07/01 09:06:42;;;;;;;3.23;3.07;;;;;;;14.46;100.00;97926.19;5081725;28;20202;-69
2021/07/01 09:09:12;;;;;;;3.37;3.07;;;;;;;14.53;100.00;97917.41;5096527;28;20230;-72
2021/07/01 09:11:41;;;;;;;3.80;3.50;;;;;;;14.26;100.00;97912.66;5089900;28;20282;-69
2021/07/01 09:14:11;;;;;;;3.87;3.57;;;;;;;14.64;100.00;97911.59;5082696;28;20688;-70
2021/07/01 09:16:40;;;;;;;4.00;3.80;;;;;;;15.09;100.00;97910.50;5081487;28;20210;-69
2021/07/01 09:19:08;;;;;;;4.47;4.17;;;;;;;15.31;100.00;97908.59;5081894;28;20309;-67
2021/07/01 09:21:36;;;;;;;3.70;3.50;;;;;;;15.75;100.00;97909.22;5081398;28;20205;-68
2021/07/01 09:24:06;;;;;;;3.50;3.30;;;;;;;15.49;100.00;97908.06;5081530;28;20214;-69
2021/07/01 09:26:34;;;;;;;3.87;3.67;;;;;;;15.76;97.87;97908.19;5080488;28;20463;-72
2021/07/01 09:29:03;;;;;;;4.00;3.73;;;;;;;15.80;95.57;97906.78;5081598;28;20226;-68
2021/07/01 09:31:31;;;;;;;3.40;3.10;;;;;;;15.89;96.52;97904.75;5085674;28;20228;-68
2021/07/01 09:33:59;;;;;;;3.60;3.10;;;;;;;16.20;95.21;97898.91;5085776;28;20202;-68
2021/07/01 09:36:27;;;;;;;4.07;3.70;;;;;;;15.91;97.08;97906.22;5085827;28;20206;-70
2021/07/01 09:38:57;;;;;;;3.27;3.10;;;;;;;16.09;93.66;97910.16;5085230;28;20717;-69
2021/07/01 09:41:26;;;;;;;3.77;3.50;;;;;;;15.99;94.42;97902.56;5084345;28;20217;-69
2021/07/01 09:43:55;;;;;;;3.67;3.40;;;;;;;16.17;94.88;97896.63;5081684;28;20206;-71
2021/07/01 09:46:28;;;;;;;2.70;2.60;;;;;;;16.68;90.89;97905.13;5083676;28;20206;-69
2021/07/01 09:48:59;;;;;;;3.47;3.27;;;;;;;16.37;90.77;97903.84;5081665;28;20232;-69
2021/07/01 09:51:28;;;;;;;3.40;3.20;;;;;;;16.66;87.32;97909.84;5085618;28;20202;-72
2021/07/01 09:53:56;;;;;;;3.00;2.90;;;;;;;16.20;87.70;97903.41;5084908;28;20202;-68
2021/07/01 09:56:37;;;;;;;3.43;3.13;;;;;;;16.12;91.74;97907.13;5085468;28;20210;-68
2021/07/01 09:59:08;;;;;;;2.90;2.77;;;;;;;15.68;92.27;97905.69;5085060;28;20286;-71
2021/07/01 10:01:38;;;;;;;2.60;2.50;;;;;;;15.81;93.25;97907.59;5087190;28;20218;-70
2021/07/01 10:04:07;;;;;;;3.00;2.80;;;;;;;15.84;93.46;97905.34;5087168;28;20199;-71
2021/07/01 10:06:36;;;;;;;3.47;3.27;;;;;;;15.53;98.27;97906.66;5086677;28;20202;-72
2021/07/01 10:09:06;;;;;;;2.87;2.77;;;;;;;15.40;100.00;97907.41;5084464;28;20229;-70
2021/07/01 10:11:39;;;;;;;3.87;3.53;;;;;;;15.22;100.00;97913.25;5084439;28;20233;-71
2021/07/01 10:14:10;;;;;;;2.77;2.67;;;;;;;15.02;99.40;97916.63;5087758;28;20211;-70
2021/07/01 10:16:38;;;;;;;3.00;2.83;;;;;;;15.23;97.88;97906.91;5083119;28;20224;-68
2021/07/01 10:19:08;;;;;;;2.83;2.63;;;;;;;15.72;96.94;97915.78;5084052;28;20214;-69
2021/07/01 10:21:37;;;;;;;2.70;2.50;;;;;;;16.47;93.04;97911.47;5085018;28;20289;-70
2021/07/01 10:24:11;;;;;;;3.40;3.20;;;;;;;16.00;88.44;97914.88;5084409;28;20469;-70
2021/07/01 10:26:43;;;;;;;2.80;2.70;;;;;;;16.51;89.69;97909.22;5083730;28;20210;-71
2021/07/01 10:29:11;;;;;;;2.60;2.50;;;;;;;16.80;87.57;97905.31;5084278;28;20706;-68
2021/07/01 10:31:54;;;;;;;2.50;2.20;;;;;;;17.02;86.84;97905.13;5082455;28;20217;-71
2021/07/01 10:34:23;;;;;;;3.20;3.00;;;;;;;16.57;86.42;97905.75;5082372;28;20275;-73
2021/07/01 10:37:15;;;;;;;2.57;2.47;;;;;;;16.69;83.60;97900.59;5083874;28;20606;-69
2021/07/01 10:39:43;;;;;;;3.20;3.00;;;;;;;16.32;85.05;97903.66;5083767;28;20575;-73
2021/07/01 10:42:13;;;;;;;3.10;2.73;;;;;;;16.25;88.62;97892.13;5082445;28;20213;-71
2021/07/01 10:44:42;;;;;;;2.27;2.17;;;;;;;16.20;87.83;97884.69;5084122;28;20608;-71
2021/07/01 10:47:24;;;;;;;2.53;2.43;;;;;;;15.84;88.14;97896.50;5084503;28;20206;-69
2021/07/01 10:49:52;;;;;;;2.27;2.17;;;;;;;15.67;88.58;97901.34;5082688;28;20256;-71
2021/07/01 10:52:21;;;;;;;2.40;2.30;;;;;;;15.59;90.79;97908.53;5083433;28;20324;-70
2021/07/01 10:54:57;;;;;;;2.27;2.17;;;;;;;15.58;91.88;97906.88;5084052;28;20222;-67
2021/07/01 10:57:47;;;;;;;1.80;1.70;;;;;;;15.44;91.69;97908.66;5083897;28;20202;-69
2021/07/01 11:00:17;;;;;;;1.60;1.60;;;;;;;14.93;92.64;97911.63;5083816;28;20222;-68
2021/07/01 11:02:49;;;;;;;1.30;1.30;;;;;;;14.86;94.07;97914.25;5085968;28;20210;-68
2021/07/01 11:05:35;;;;;;;1.60;1.60;;;;;;;14.89;96.28;97927.19;5080886;28;20763;-68
2021/07/01 11:08:05;;;;;;;1.83;1.83;;;;;;;14.15;100.00;97927.31;5084528;28;20202;-72
2021/07/01 11:10:34;;;;;;;1.63;1.53;;;;;;;13.67;100.00;97935.78;5081535;28;20233;-72
2021/07/01 11:13:08;;;;;;;2.47;1.80;;;;;;;13.46;100.00;97934.69;5085466;28;20214;-71
2021/07/01 11:15:52;;;;;;;2.13;2.03;;;;;;;13.58;100.00;97934.22;5083636;28;20670;-70
2021/07/01 11:18:33;;;;;;;2.47;2.37;;;;;;;13.69;100.00;97925.78;5081206;28;20204;-71
2021/07/01 11:21:09;;;;;;;2.50;2.40;;;;;;;13.84;100.00;97925.75;5085441;28;20274;-70
2021/07/01 11:23:38;;;;;;;2.20;2.10;;;;;;;14.05;100.00;97921.47;5082355;28;20284;-69
2021/07/01 11:26:28;;;;;;;2.73;2.53;;;;;;;14.09;100.00;97917.41;5084244;28;20202;-72
2021/07/01 11:28:59;;;;;;;2.83;2.63;;;;;;;14.47;100.00;97914.50;5081262;28;20325;-71
2021/07/01 11:31:38;;;;;;;1.63;1.63;;;;;;;14.68;100.00;97931.53;5084527;28;20309;-70
2021/07/01 11:34:07;;;;;;;2.80;2.60;;;;;;;14.76;100.00;97918.06;5083446;28;20308;-71
2021/07/01 11:36:37;;;;;;;2.03;1.60;;;;;;;14.80;100.00;97931.84;5083306;28;20653;-73
2021/07/01 11:39:13;;;;;;;3.80;1.83;;;;;;;15.04;100.00;97927.09;5083024;28;20222;-69